Wetterdaten: aktuell Donnerstag, 16.08.2018 15:30
Datum Zeit Temp. A. Feuchte A. Luftdruck Regen Wind Sonnenschein ET UV Solar Taupunkt Windchill Windben
16.08.2018 15:30 29,5 C 37 % 1013,5 hPa 0,0 l/m 7,6 km/h (2 Bft) 60 min 0,533 mm 1,6 UV-I 675 W/m 13,3 C 29,4 C 16,1 km/h (3 Bft)
16.08.2018 14:30 29,4 C 39 % 1014,1 hPa 0,0 l/m 5,4 km/h (1 Bft) 60 min 0,483 mm 3,4 UV-I 737 W/m 14,0 C 29,4 C 9,7 km/h (2 Bft)
16.08.2018 13:30 29,1 C 42 % 1014,5 hPa 0,0 l/m 7,4 km/h (2 Bft) 60 min 0,508 mm 3,6 UV-I 278 W/m 14,9 C 29,0 C 12,9 km/h (3 Bft)
16.08.2018 12:30 27,4 C 45 % 1015,1 hPa 0,0 l/m 7,9 km/h (2 Bft) 60 min 0,457 mm 3,4 UV-I 745 W/m 14,4 C 27,1 C 12,9 km/h (3 Bft)
16.08.2018 11:30 26,7 C 48 % 1015,6 hPa 0,0 l/m 4,3 km/h (1 Bft) 60 min 0,279 mm 2,8 UV-I 680 W/m 14,8 C 26,7 C 8,0 km/h (2 Bft)
16.08.2018 10:30 23,8 C 60 % 1015,9 hPa 0,0 l/m 3,5 km/h (1 Bft) 60 min 0,254 mm 1,9 UV-I 402 W/m 15,6 C 23,8 C 6,4 km/h (2 Bft)
16.08.2018 09:30 20,6 C 70 % 1016,1 hPa 0,0 l/m 1,5 km/h (1 Bft) 60 min 0,102 mm 0,9 UV-I 426 W/m 14,9 C 20,6 C 4,8 km/h (1 Bft)
16.08.2018 08:30 13,9 C 90 % 1016,8 hPa 0,0 l/m 0,0 km/h (0 Bft) 56 min 0,051 mm 0,5 UV-I 264 W/m 12,3 C 13,9 C 0,0 km/h (0 Bft)
16.08.2018 07:30 11,4 C 90 % 1017,0 hPa 0,0 l/m 0,1 km/h (0 Bft) 22 min 0,000 mm 0,0 UV-I 99 W/m 9,8 C 11,4 C 1,6 km/h (1 Bft)
16.08.2018 06:31 10,5 C 89 % 1017,0 hPa 0,0 l/m 0,0 km/h (0 Bft) 0 min 0,000 mm 0,0 UV-I 9 W/m 8,8 C 10,5 C 1,6 km/h (1 Bft)
16.08.2018 05:32 10,8 C 89 % 1017,0 hPa 0,0 l/m 0,1 km/h (0 Bft) 0 min 0,000 mm 0,0 UV-I 0 W/m 9,1 C 10,8 C 1,6 km/h (1 Bft)
16.08.2018 04:32 11,2 C 88 % 1017,1 hPa 0,0 l/m 0,2 km/h (0 Bft) 0 min 0,000 mm 0,0 UV-I 0 W/m 9,3 C 11,2 C 1,6 km/h (1 Bft)
16.08.2018 03:32 11,6 C 88 % 1017,4 hPa 0,0 l/m 0,4 km/h (0 Bft) 0 min 0,000 mm 0,0 UV-I 0 W/m 9,7 C 11,6 C 1,6 km/h (1 Bft)
16.08.2018 02:32 12,2 C 87 % 1017,8 hPa 0,0 l/m 0,0 km/h (0 Bft) 0 min 0,000 mm 0,0 UV-I 0 W/m 10,1 C 12,2 C 1,6 km/h (1 Bft)
16.08.2018 01:32 13,1 C 85 % 1017,9 hPa 0,0 l/m 0,0 km/h (0 Bft) 0 min 0,025 mm 0,0 UV-I 0 W/m 10,6 C 13,1 C 0,0 km/h (0 Bft)
16.08.2018 00:32 14,2 C 83 % 1018,0 hPa 0,0 l/m 0,1 km/h (0 Bft) 0 min 0,000 mm 0,0 UV-I 0 W/m 11,4 C 14,2 C 1,6 km/h (1 Bft)
15.08.2018 23:32 15,1 C 81 % 1017,9 hPa 0,0 l/m 0,0 km/h (0 Bft) 0 min 0,025 mm 0,0 UV-I 0 W/m 11,9 C 15,1 C 0,0 km/h (0 Bft)
15.08.2018 22:32 16,5 C 76 % 1017,8 hPa 0,0 l/m 0,0 km/h (0 Bft) 0 min 0,025 mm 0,0 UV-I 0 W/m 12,3 C 16,5 C 1,6 km/h (1 Bft)
15.08.2018 21:32 18,8 C 66 % 1017,8 hPa 0,0 l/m 0,0 km/h (0 Bft) 0 min 0,000 mm 0,0 UV-I 0 W/m 12,3 C 18,8 C 0,0 km/h (0 Bft)
15.08.2018 20:32 21,6 C 58 % 1017,3 hPa 0,0 l/m 0,0 km/h (0 Bft) 0 min 0,026 mm 0,0 UV-I 0 W/m 13,0 C 21,6 C 1,6 km/h (1 Bft)
15.08.2018 19:32 23,4 C 52 % 1017,1 hPa 0,0 l/m 1,0 km/h (0 Bft) 0 min 0,076 mm 0,0 UV-I 21 W/m 13,0 C 23,4 C 4,8 km/h (1 Bft)
15.08.2018 18:32 24,8 C 48 % 1017,0 hPa 0,0 l/m 5,7 km/h (1 Bft) 58 min 0,076 mm 0,0 UV-I 52 W/m 13,0 C 24,8 C 9,7 km/h (2 Bft)
15.08.2018 17:32 25,2 C 49 % 1017,2 hPa 0,0 l/m 1,5 km/h (1 Bft) 60 min 0,127 mm 0,7 UV-I 78 W/m 13,7 C 25,2 C 4,8 km/h (1 Bft)
15.08.2018 16:32 24,4 C 51 % 1017,4 hPa 0,0 l/m 1,4 km/h (1 Bft) 32 min 0,432 mm 1,1 UV-I 101 W/m 13,6 C 24,4 C 3,2 km/h (1 Bft)
15.08.2018 16:00 25,8 C 48 % 1017,4 hPa 0,0 l/m 3,8 km/h (1 Bft) 0 min 0,432 mm 1,9 UV-I 234 W/m 13,9 C 25,8 C 12,9 km/h (3 Bft)
_ Min-Zeit 06:30 15:28 15:28 - 20:10 - - - - 06:30 06:30 20:10
Minimum _ 10,5 C 36 % 1013,4 hPa - 0,0 km/h (0 Bft) - - - - 8,8 C 10,5 C 0,0 km/h (0 Bft)
_ Max-Zeit 15:18 07:04 23:46 16:00 12:20 16:00 15:00 12:54 13:54 10:38 15:06 14:14
Maximum _ 29,9 C 90 % 1018,1 hPa 0,0 l/m 9,9 km/h
S (2 Bft)
2 min 0,533 mm 3,7 UV-I 763 W/m 15,9 C 29,8 C 17,7 km/h
S (3 Bft)
Durchschnitt _ 19,7 C 66 % 1016,8 hPa #0,0 l/m 2,0 km/h (1 Bft) #8:18 h #2,692 mm 2,5 UV-I 467 W/m 12,4 C 19,7 C 5,0 km/h (1 Bft)